RYR38MM LZIB-LIMC
Flight info
| Callsign | RYR38MM |
|---|---|
| Flight time | N/A |
| Altitude | 38000 |
| Route | TOVKA DCT INGID DCT DETSA DCT BAKOR DCT GUNGO DCT RENTA DCT ATPED DCT LUSIL DCT EVRIP |
| Aircraft | B738/M-SDE2E3FGHIRWXY/LB1 |
Departure
| Time | 2026-05-07 19:54 |
|---|---|
| Airport | M. R. Štefánik Airport (LZIB) |
Arrival
| Time | N/A |
|---|---|
| Airport | Milan Malpensa International Airport (LIMC) |
| Time | Latitude | Longitude | Altitude | Speed | Heading |
|---|---|---|---|---|---|
| 2026-05-07 19:35 | 48.16886 | 17.20048 | 431 ft | 0 kts | 314° |
| 2026-05-07 19:47 | 48.16876 | 17.20064 | 431 ft | 4 kts | 314° |
| 2026-05-07 19:47 | 48.16860 | 17.20089 | 420 ft | 4 kts | 319° |
| 2026-05-07 19:47 | 48.16841 | 17.20099 | 425 ft | 4 kts | 28° |
| 2026-05-07 19:47 | 48.16820 | 17.20075 | 422 ft | 4 kts | 44° |
| 2026-05-07 19:48 | 48.16815 | 17.20067 | 425 ft | 0 kts | 44° |
| 2026-05-07 19:50 | 48.16815 | 17.20068 | 424 ft | 0 kts | 44° |
| 2026-05-07 19:50 | 48.16826 | 17.20083 | 420 ft | 4 kts | 44° |
| 2026-05-07 19:51 | 48.16858 | 17.20129 | 417 ft | 9 kts | 44° |
| 2026-05-07 19:51 | 48.16913 | 17.20208 | 424 ft | 13 kts | 43° |
| 2026-05-07 19:51 | 48.16979 | 17.20302 | 431 ft | 14 kts | 43° |
| 2026-05-07 19:51 | 48.17047 | 17.20400 | 418 ft | 13 kts | 44° |
| 2026-05-07 19:52 | 48.17120 | 17.20506 | 422 ft | 16 kts | 44° |
| 2026-05-07 19:52 | 48.17213 | 17.20564 | 419 ft | 15 kts | 337° |
| 2026-05-07 19:52 | 48.17289 | 17.20459 | 430 ft | 15 kts | 314° |
| 2026-05-07 19:52 | 48.17360 | 17.20351 | 421 ft | 14 kts | 316° |
| 2026-05-07 19:53 | 48.17445 | 17.20293 | 420 ft | 13 kts | 357° |
| 2026-05-07 19:53 | 48.17524 | 17.20356 | 421 ft | 13 kts | 43° |
| 2026-05-07 19:53 | 48.17529 | 17.20465 | 426 ft | 13 kts | 135° |
| 2026-05-07 19:53 | 48.17466 | 17.20562 | 430 ft | 16 kts | 134° |
| 2026-05-07 19:54 | 48.17256 | 17.20887 | 429 ft | 78 kts | 134° |
| 2026-05-07 19:54 | 48.16723 | 17.21714 | 424 ft | 139 kts | 134° |
| 2026-05-07 19:54 | 48.16001 | 17.22852 | 726 ft | 159 kts | 134° |
| 2026-05-07 19:54 | 48.15218 | 17.24105 | 1098 ft | 180 kts | 134° |
| 2026-05-07 19:55 | 48.14321 | 17.25491 | 1696 ft | 184 kts | 135° |
| 2026-05-07 19:55 | 48.13382 | 17.26948 | 2078 ft | 202 kts | 135° |
| 2026-05-07 19:55 | 48.12390 | 17.28493 | 2568 ft | 207 kts | 135° |
| 2026-05-07 19:55 | 48.11494 | 17.30204 | 3031 ft | 216 kts | 115° |
| 2026-05-07 19:56 | 48.11213 | 17.32419 | 3596 ft | 219 kts | 90° |
| 2026-05-07 19:56 | 48.11387 | 17.34686 | 4182 ft | 222 kts | 69° |
| 2026-05-07 19:56 | 48.12328 | 17.36496 | 4813 ft | 222 kts | 42° |
| 2026-05-07 19:56 | 48.13507 | 17.37984 | 5317 ft | 228 kts | 30° |
| 2026-05-07 19:57 | 48.15052 | 17.38534 | 5813 ft | 233 kts | 353° |
| 2026-05-07 19:57 | 48.16593 | 17.37687 | 6050 ft | 248 kts | 327° |
| 2026-05-07 19:57 | 48.18109 | 17.36286 | 6505 ft | 258 kts | 327° |
| 2026-05-07 19:57 | 48.19699 | 17.34803 | 6872 ft | 276 kts | 327° |
| 2026-05-07 19:58 | 48.21327 | 17.33296 | 7567 ft | 280 kts | 326° |
| 2026-05-07 19:58 | 48.23013 | 17.31753 | 8454 ft | 281 kts | 326° |
| 2026-05-07 19:58 | 48.24503 | 17.29885 | 9232 ft | 280 kts | 302° |
| 2026-05-07 19:58 | 48.25233 | 17.27263 | 10057 ft | 277 kts | 278° |
| 2026-05-07 19:59 | 48.25329 | 17.24325 | 10516 ft | 293 kts | 266° |
| 2026-05-07 19:59 | 48.25224 | 17.21142 | 10712 ft | 317 kts | 265° |
| 2026-05-07 19:59 | 48.25082 | 17.17774 | 11237 ft | 328 kts | 265° |
| 2026-05-07 19:59 | 48.24949 | 17.14347 | 11817 ft | 331 kts | 265° |
| 2026-05-07 20:00 | 48.24834 | 17.10893 | 11939 ft | 330 kts | 265° |
| 2026-05-07 20:00 | 48.24728 | 17.07454 | 11960 ft | 331 kts | 265° |
| 2026-05-07 20:00 | 48.24623 | 17.03968 | 12270 ft | 338 kts | 265° |
| 2026-05-07 20:00 | 48.24818 | 17.00448 | 13153 ft | 342 kts | 283° |
| 2026-05-07 20:01 | 48.25666 | 16.97101 | 14095 ft | 344 kts | 289° |
| 2026-05-07 20:01 | 48.26385 | 16.93690 | 14820 ft | 343 kts | 272° |
| 2026-05-07 20:01 | 48.26240 | 16.90150 | 15606 ft | 339 kts | 253° |
| 2026-05-07 20:01 | 48.25444 | 16.86841 | 16492 ft | 337 kts | 245° |
| 2026-05-07 20:02 | 48.24513 | 16.83610 | 17325 ft | 339 kts | 243° |
| 2026-05-07 20:02 | 48.23546 | 16.80370 | 18150 ft | 341 kts | 243° |
| 2026-05-07 20:02 | 48.22568 | 16.77109 | 18856 ft | 344 kts | 242° |
| 2026-05-07 20:02 | 48.21585 | 16.73820 | 19505 ft | 348 kts | 242° |
| 2026-05-07 20:03 | 48.20595 | 16.70487 | 20124 ft | 352 kts | 242° |
| 2026-05-07 20:03 | 48.19596 | 16.67110 | 20733 ft | 356 kts | 242° |
| 2026-05-07 20:03 | 48.18592 | 16.63703 | 21346 ft | 360 kts | 242° |
| 2026-05-07 20:03 | 48.17578 | 16.60252 | 21943 ft | 364 kts | 242° |
| 2026-05-07 20:04 | 48.16554 | 16.56770 | 22535 ft | 367 kts | 242° |
| 2026-05-07 20:04 | 48.15518 | 16.53248 | 23122 ft | 371 kts | 242° |
| 2026-05-07 20:04 | 48.14474 | 16.49697 | 23672 ft | 375 kts | 242° |
| 2026-05-07 20:04 | 48.13418 | 16.46112 | 24161 ft | 377 kts | 242° |
| 2026-05-07 20:05 | 48.12357 | 16.42510 | 24697 ft | 378 kts | 242° |
| 2026-05-07 20:05 | 48.11293 | 16.38904 | 25302 ft | 379 kts | 242° |
| 2026-05-07 20:05 | 48.10230 | 16.35307 | 25874 ft | 379 kts | 242° |
| 2026-05-07 20:05 | 48.09159 | 16.31689 | 26367 ft | 382 kts | 241° |
| 2026-05-07 20:06 | 48.08077 | 16.28043 | 26839 ft | 384 kts | 241° |
| 2026-05-07 20:06 | 48.06989 | 16.24382 | 27318 ft | 386 kts | 241° |
| 2026-05-07 20:06 | 48.05895 | 16.20704 | 27782 ft | 389 kts | 241° |
| 2026-05-07 20:06 | 48.04792 | 16.17002 | 28245 ft | 391 kts | 241° |
| 2026-05-07 20:07 | 48.03681 | 16.13279 | 28685 ft | 393 kts | 241° |
| 2026-05-07 20:07 | 48.02566 | 16.09548 | 29159 ft | 394 kts | 241° |
| 2026-05-07 20:07 | 48.01460 | 16.05850 | 29553 ft | 396 kts | 241° |
| 2026-05-07 20:07 | 48.00330 | 16.02081 | 29933 ft | 399 kts | 241° |
| 2026-05-07 20:08 | 47.99177 | 15.98242 | 30315 ft | 400 kts | 241° |
| 2026-05-07 20:08 | 47.98043 | 15.94466 | 30769 ft | 399 kts | 241° |
| 2026-05-07 20:08 | 47.96926 | 15.90751 | 31253 ft | 397 kts | 241° |
| 2026-05-07 20:08 | 47.95797 | 15.87002 | 31751 ft | 395 kts | 241° |
| 2026-05-07 20:09 | 47.94669 | 15.83266 | 32149 ft | 395 kts | 241° |
| 2026-05-07 20:09 | 47.93545 | 15.79549 | 32480 ft | 394 kts | 242° |
| 2026-05-07 20:09 | 47.92417 | 15.75823 | 32815 ft | 395 kts | 242° |
| 2026-05-07 20:10 | 47.90159 | 15.68391 | 33710 ft | 392 kts | 242° |
| 2026-05-07 20:10 | 47.89035 | 15.64697 | 34090 ft | 392 kts | 242° |
| 2026-05-07 20:10 | 47.87907 | 15.60996 | 34357 ft | 393 kts | 242° |
| 2026-05-07 20:10 | 47.86773 | 15.57282 | 34580 ft | 395 kts | 242° |
| 2026-05-07 20:11 | 47.85634 | 15.53560 | 34866 ft | 395 kts | 242° |
| 2026-05-07 20:11 | 47.84495 | 15.49840 | 35111 ft | 396 kts | 242° |
| 2026-05-07 20:11 | 47.83347 | 15.46095 | 35335 ft | 398 kts | 242° |
| 2026-05-07 20:11 | 47.82193 | 15.42338 | 35573 ft | 399 kts | 242° |
| 2026-05-07 20:12 | 47.81040 | 15.38585 | 35871 ft | 399 kts | 242° |
| 2026-05-07 20:12 | 47.79885 | 15.34834 | 36125 ft | 399 kts | 243° |
| 2026-05-07 20:12 | 47.78725 | 15.31075 | 36300 ft | 403 kts | 243° |
| 2026-05-07 20:12 | 47.77553 | 15.27280 | 36476 ft | 405 kts | 243° |
| 2026-05-07 20:13 | 47.76377 | 15.23481 | 36752 ft | 404 kts | 243° |
| 2026-05-07 20:13 | 47.75205 | 15.19695 | 37010 ft | 403 kts | 243° |
| 2026-05-07 20:13 | 47.74030 | 15.15907 | 37205 ft | 404 kts | 243° |
| 2026-05-07 20:13 | 47.72866 | 15.12160 | 37429 ft | 405 kts | 243° |
| 2026-05-07 20:14 | 47.71683 | 15.08360 | 37647 ft | 405 kts | 243° |
| 2026-05-07 20:14 | 47.70496 | 15.04554 | 37826 ft | 407 kts | 243° |
| 2026-05-07 20:14 | 47.69305 | 15.00738 | 37965 ft | 410 kts | 243° |
| 2026-05-07 20:15 | 47.66891 | 14.93023 | 37949 ft | 413 kts | 243° |
| 2026-05-07 20:15 | 47.64488 | 14.85364 | 37950 ft | 406 kts | 243° |
| 2026-05-07 20:16 | 47.62103 | 14.77790 | 37954 ft | 406 kts | 244° |
| 2026-05-07 20:16 | 47.59713 | 14.70221 | 37966 ft | 406 kts | 243° |
| 2026-05-07 20:17 | 47.57315 | 14.62649 | 37948 ft | 405 kts | 243° |
| 2026-05-07 20:17 | 47.54918 | 14.55102 | 37974 ft | 406 kts | 243° |
| 2026-05-07 20:18 | 47.52497 | 14.47504 | 37970 ft | 408 kts | 243° |
| 2026-05-07 20:18 | 47.50068 | 14.39902 | 37972 ft | 410 kts | 243° |
| 2026-05-07 20:19 | 47.47616 | 14.32251 | 37951 ft | 412 kts | 243° |
| 2026-05-07 20:19 | 47.45157 | 14.24603 | 37975 ft | 412 kts | 244° |